Time;durP1;ratioP1;P1;durP2;ratioP2;P2;SDS_P1;SDS_P2;PMS_P1;PMS_P2;Temp;Humidity;BMP_temperature;BMP_pressure;BME280_temperature;BME280_humidity;BME280_pressure;Samples;Min_cycle;Max_cycle;Signal;HPM_P1;HPM_P2
2023/07/30 00:02:09;;;;;;;;;;;;;;;25.75;48.60;99949.13;5444771;32;34619;-86
2023/07/30 00:05:11;;;;;;;;;;;;;;;25.62;49.22;99944.22;5449443;32;34169;-85
2023/07/30 00:08:13;;;;;;;;;;;;;;;26.02;48.13;99947.94;5457227;32;34307;-84
2023/07/30 00:11:15;;;;;;;;;;;;;;;26.01;47.50;99949.78;5457904;32;35300;-85
2023/07/30 00:14:17;;;;;;;;;;;;;;;25.71;47.78;99947.78;5460476;32;35035;-85
2023/07/30 00:17:19;;;;;;;;;;;;;;;26.22;45.67;99945.75;5445078;32;36063;-85
2023/07/30 00:20:21;;;;;;;;;;;;;;;26.45;44.98;99941.31;5461377;32;34176;-85
2023/07/30 00:23:22;;;;;;;;;;;;;;;25.86;44.47;99949.66;5445699;32;35203;-86
2023/07/30 00:26:26;;;;;;;;;;;;;;;25.42;44.71;99941.00;5463642;32;35007;-85
2023/07/30 00:29:28;;;;;;;;;;;;;;;25.92;43.95;99945.44;5445443;32;34540;-88
2023/07/30 00:32:30;;;;;;;;;;;;;;;26.04;43.66;99946.78;5446471;32;34774;-87
2023/07/30 00:35:32;;;;;;;;;;;;;;;26.84;41.63;99937.81;5445086;32;34965;-86
2023/07/30 00:38:34;;;;;;;;;;;;;;;26.00;43.40;99940.03;5457596;32;33911;-86
2023/07/30 00:41:36;;;;;;;;;;;;;;;25.59;44.67;99936.50;5451678;32;35628;-86
2023/07/30 00:44:38;;;;;;;;;;;;;;;25.32;45.35;99938.50;5457645;32;34906;-86
2023/07/30 00:47:40;;;;;;;;;;;;;;;25.29;45.79;99946.03;5453599;32;34377;-85
2023/07/30 00:50:43;;;;;;;;;;;;;;;25.46;45.40;99941.53;5445058;32;35161;-86
2023/07/30 00:53:45;;;;;;;;;;;;;;;25.14;46.09;99935.09;5459101;32;34479;-86
2023/07/30 00:56:49;;;;;;;;;;;;;;;25.62;45.15;99928.06;5446056;32;35217;-86
2023/07/30 00:59:51;;;;;;;;;;;;;;;25.26;46.10;99924.87;5456530;32;35212;-86
2023/07/30 01:02:53;;;;;;;;;;;;;;;25.06;46.74;99924.31;5447225;32;34467;-86
2023/07/30 01:05:55;;;;;;;;;;;;;;;25.51;46.17;99915.81;5445224;32;35463;-86
2023/07/30 01:08:57;;;;;;;;;;;;;;;25.84;45.35;99921.22;5461404;32;35412;-86
2023/07/30 01:11:59;;;;;;;;;;;;;;;25.51;46.38;99923.88;5449557;32;36502;-86
2023/07/30 01:15:01;;;;;;;;;;;;;;;25.48;46.86;99924.22;5433829;32;35643;-86
2023/07/30 01:18:04;;;;;;;;;;;;;;;24.92;48.14;99915.00;5445232;32;35364;-86
2023/07/30 01:21:06;;;;;;;;;;;;;;;25.83;46.25;99916.84;5430046;32;35337;-86
2023/07/30 01:24:07;;;;;;;;;;;;;;;25.24;47.79;99916.09;5449347;32;34230;-87
2023/07/30 01:27:12;;;;;;;;;;;;;;;25.21;47.82;99906.53;5445572;32;34457;-84
2023/07/30 01:30:30;;;;;;;;;;;;;;;24.97;48.55;99909.13;5460523;32;35016;-85
2023/07/30 01:33:32;;;;;;;;;;;;;;;25.26;47.76;99903.34;5441884;32;35716;-86
2023/07/30 01:36:35;;;;;;;;;;;;;;;25.07;48.59;99880.28;5444134;32;35006;-85
2023/07/30 01:39:38;;;;;;;;;;;;;;;25.28;48.27;99875.28;5461128;32;36459;-85
2023/07/30 01:42:40;;;;;;;;;;;;;;;25.33;48.11;99875.62;5457855;32;34740;-86
2023/07/30 01:45:42;;;;;;;;;;;;;;;25.29;48.09;99885.03;5449143;32;36517;-87
2023/07/30 01:48:43;;;;;;;;;;;;;;;24.89;49.33;99879.56;5447821;32;35086;-85
2023/07/30 01:51:45;;;;;;;;;;;;;;;25.20;48.80;99880.66;5447327;32;34565;-85
2023/07/30 01:54:47;;;;;;;;;;;;;;;24.81;49.87;99889.28;5445729;32;35490;-85
2023/07/30 01:57:49;;;;;;;;;;;;;;;24.66;50.60;99873.94;5442935;32;34742;-86
2023/07/30 02:00:51;;;;;;;;;;;;;;;25.29;48.92;99876.12;5464734;32;34611;-86
2023/07/30 02:03:53;;;;;;;;;;;;;;;24.71;50.51;99868.91;5466277;32;35435;-86
2023/07/30 02:06:56;;;;;;;;;;;;;;;24.72;50.65;99871.44;5459863;32;35542;-87
2023/07/30 02:09:57;;;;;;;;;;;;;;;24.61;50.84;99874.44;5443634;32;34926;-86
2023/07/30 02:13:00;;;;;;;;;;;;;;;24.04;52.53;99874.13;5447088;32;35223;-85
2023/07/30 02:16:02;;;;;;;;;;;;;;;24.74;50.47;99876.66;5439413;32;34971;-85
2023/07/30 02:19:04;;;;;;;;;;;;;;;23.73;53.51;99882.66;5449834;32;34845;-86
2023/07/30 02:22:07;;;;;;;;;;;;;;;24.46;51.82;99879.56;5465773;32;35239;-85
2023/07/30 02:25:09;;;;;;;;;;;;;;;24.14;52.66;99877.53;5442560;32;35029;-85
2023/07/30 02:28:11;;;;;;;;;;;;;;;24.58;51.32;99883.66;5449085;32;37283;-85
2023/07/30 02:31:16;;;;;;;;;;;;;;;24.16;52.53;99886.28;5432173;32;34073;-85
2023/07/30 02:34:18;;;;;;;;;;;;;;;24.07;52.90;99891.75;5442673;32;35416;-86
2023/07/30 02:37:20;;;;;;;;;;;;;;;24.34;52.27;99893.44;5457340;32;35872;-85
2023/07/30 02:40:22;;;;;;;;;;;;;;;24.09;52.96;99887.06;5445797;32;34882;-85
2023/07/30 02:43:24;;;;;;;;;;;;;;;24.38;52.11;99890.28;5458984;32;34679;-85
2023/07/30 02:46:26;;;;;;;;;;;;;;;24.69;51.46;99895.94;5442899;32;34053;-84
2023/07/30 02:49:28;;;;;;;;;;;;;;;24.36;51.84;99903.03;5449246;32;36971;-85
2023/07/30 02:52:30;;;;;;;;;;;;;;;24.12;53.02;99903.69;5443374;32;33376;-85
2023/07/30 02:55:32;;;;;;;;;;;;;;;24.02;53.20;99902.97;5457231;32;34860;-85
2023/07/30 02:58:34;;;;;;;;;;;;;;;24.20;52.77;99903.75;5446453;32;35564;-85
2023/07/30 03:01:36;;;;;;;;;;;;;;;24.27;52.67;99896.72;5443149;32;34999;-85
2023/07/30 03:04:39;;;;;;;;;;;;;;;24.54;51.68;99903.78;5448712;32;33924;-86
2023/07/30 03:07:41;;;;;;;;;;;;;;;24.41;52.21;99898.03;5443674;32;34863;-85
2023/07/30 03:10:43;;;;;;;;;;;;;;;24.51;51.99;99900.56;5448422;32;34299;-86
2023/07/30 03:13:45;;;;;;;;;;;;;;;24.96;50.78;99894.00;5444409;32;35762;-85
2023/07/30 03:16:47;;;;;;;;;;;;;;;24.75;51.44;99895.31;5445075;32;34596;-85
2023/07/30 03:19:49;;;;;;;;;;;;;;;25.49;49.42;99893.59;5446327;32;34677;-85
2023/07/30 03:22:51;;;;;;;;;;;;;;;25.01;50.51;99894.37;5454915;32;35159;-85
2023/07/30 03:25:53;;;;;;;;;;;;;;;25.25;49.98;99894.44;5448358;32;36424;-85
2023/07/30 03:28:55;;;;;;;;;;;;;;;25.22;49.89;99897.44;5453679;32;34516;-86
2023/07/30 03:31:57;;;;;;;;;;;;;;;24.84;50.64;99898.84;5447098;32;34838;-86
2023/07/30 03:34:59;;;;;;;;;;;;;;;24.67;51.20;99900.66;5441639;32;34739;-86
2023/07/30 03:38:01;;;;;;;;;;;;;;;24.23;52.58;99895.37;5444043;32;34626;-85
2023/07/30 03:41:04;;;;;;;;;;;;;;;24.10;53.04;99904.88;5448672;32;36517;-85
2023/07/30 03:44:06;;;;;;;;;;;;;;;24.19;52.34;99898.53;5447095;32;34227;-85
2023/07/30 03:47:08;;;;;;;;;;;;;;;24.64;51.34;99898.28;5454612;32;35642;-85
2023/07/30 03:50:10;;;;;;;;;;;;;;;24.30;51.53;99900.97;5435505;32;34703;-85
2023/07/30 03:53:12;;;;;;;;;;;;;;;24.47;51.47;99896.53;5453871;32;34754;-85
2023/07/30 03:56:13;;;;;;;;;;;;;;;24.77;50.27;99906.72;5448530;32;34824;-85
2023/07/30 03:59:15;;;;;;;;;;;;;;;24.00;52.42;99905.81;5458084;32;35009;-85
2023/07/30 04:02:18;;;;;;;;;;;;;;;24.20;52.03;99906.44;5450328;32;34264;-85
2023/07/30 04:05:19;;;;;;;;;;;;;;;24.23;51.82;99914.19;5449377;32;35091;-85
2023/07/30 04:08:21;;;;;;;;;;;;;;;24.30;51.88;99911.69;5451028;32;33067;-85
2023/07/30 04:11:23;;;;;;;;;;;;;;;24.70;51.36;99913.75;5459578;32;34325;-85
2023/07/30 04:14:25;;;;;;;;;;;;;;;24.12;52.90;99924.34;5453796;32;35410;-86
2023/07/30 04:17:27;;;;;;;;;;;;;;;24.15;52.56;99927.56;5459818;32;34423;-85
2023/07/30 04:20:29;;;;;;;;;;;;;;;24.90;50.69;99922.38;5450611;32;35495;-85
2023/07/30 04:23:31;;;;;;;;;;;;;;;25.12;50.03;99921.81;5463619;32;34386;-85
2023/07/30 04:26:33;;;;;;;;;;;;;;;24.94;50.31;99928.28;5450091;32;34376;-86
2023/07/30 04:29:35;;;;;;;;;;;;;;;25.01;50.01;99923.94;5476980;32;34523;-85
2023/07/30 04:32:37;;;;;;;;;;;;;;;24.55;51.43;99932.34;5445067;32;34391;-85
2023/07/30 04:35:39;;;;;;;;;;;;;;;24.79;50.90;99928.88;5449595;32;35258;-85
2023/07/30 04:38:41;;;;;;;;;;;;;;;24.50;51.86;99928.44;5445886;32;34570;-85
2023/07/30 04:41:43;;;;;;;;;;;;;;;24.96;50.40;99919.03;5447152;32;36577;-86
2023/07/30 04:44:46;;;;;;;;;;;;;;;24.82;50.72;99933.13;5463079;32;35531;-85
2023/07/30 04:47:48;;;;;;;;;;;;;;;24.51;51.88;99930.13;5447250;32;34216;-86
2023/07/30 04:50:50;;;;;;;;;;;;;;;24.66;51.51;99936.56;5452316;32;34406;-85
2023/07/30 04:53:52;;;;;;;;;;;;;;;24.92;50.65;99932.97;5456553;32;35343;-86
2023/07/30 04:56:54;;;;;;;;;;;;;;;24.61;51.52;99938.91;5460141;32;34931;-86
2023/07/30 04:59:56;;;;;;;;;;;;;;;24.31;52.83;99942.91;5445037;32;35031;-86
2023/07/30 05:02:58;;;;;;;;;;;;;;;24.79;51.76;99938.81;5448416;32;33899;-86
2023/07/30 05:06:00;;;;;;;;;;;;;;;24.81;51.62;99943.03;5459416;32;35716;-86
2023/07/30 05:09:02;;;;;;;;;;;;;;;24.65;51.97;99945.63;5455750;32;34428;-86
2023/07/30 05:12:04;;;;;;;;;;;;;;;25.08;51.23;99946.50;5448744;32;34317;-85
2023/07/30 05:15:06;;;;;;;;;;;;;;;25.53;49.96;99947.94;5445453;32;34461;-85
2023/07/30 05:18:08;;;;;;;;;;;;;;;25.32;50.71;99948.41;5466601;32;34480;-86
2023/07/30 05:21:10;;;;;;;;;;;;;;;25.37;50.55;99943.34;5451366;32;34495;-86
2023/07/30 05:24:12;;;;;;;;;;;;;;;25.11;51.31;99948.84;5471899;32;34309;-85
2023/07/30 05:27:14;;;;;;;;;;;;;;;25.56;49.94;99939.50;5452712;32;34448;-85
2023/07/30 05:30:16;;;;;;;;;;;;;;;25.65;49.50;99951.97;5444507;32;34143;-85
2023/07/30 05:33:18;;;;;;;;;;;;;;;25.90;49.03;99944.78;5446105;32;36068;-85
2023/07/30 05:36:20;;;;;;;;;;;;;;;25.22;50.87;99945.03;5451982;32;34225;-86
2023/07/30 05:39:22;;;;;;;;;;;;;;;25.50;50.27;99948.25;5466531;32;36235;-86
2023/07/30 05:42:24;;;;;;;;;;;;;;;24.90;51.74;99941.19;5444956;32;34578;-87
2023/07/30 05:45:28;;;;;;;;;;;;;;;26.02;48.72;99934.47;5444279;32;35177;-86
2023/07/30 05:48:30;;;;;;;;;;;;;;;25.44;50.61;99940.84;5450046;32;36912;-86
2023/07/30 05:51:32;;;;;;;;;;;;;;;25.22;51.21;99943.16;5452939;32;35074;-86
2023/07/30 05:54:34;;;;;;;;;;;;;;;25.11;51.53;99946.16;5452603;32;34893;-85
2023/07/30 05:57:36;;;;;;;;;;;;;;;25.17;51.40;99940.13;5443350;32;35488;-86
2023/07/30 06:00:38;;;;;;;;;;;;;;;25.47;50.94;99940.53;5459479;32;34654;-86
2023/07/30 06:03:40;;;;;;;;;;;;;;;26.86;47.49;99936.62;5455516;32;36946;-85
2023/07/30 06:06:42;;;;;;;;;;;;;;;26.00;48.87;99947.28;5454831;32;34595;-84
2023/07/30 06:09:45;;;;;;;;;;;;;;;26.11;49.08;99939.69;5476708;32;36824;-86
2023/07/30 06:12:47;;;;;;;;;;;;;;;25.99;49.53;99943.75;5450258;32;36143;-86
2023/07/30 06:15:49;;;;;;;;;;;;;;;26.19;49.04;99944.22;5457947;32;34619;-86
2023/07/30 06:18:51;;;;;;;;;;;;;;;26.25;48.94;99951.62;5442914;32;34704;-86
2023/07/30 06:21:53;;;;;;;;;;;;;;;26.58;48.00;99943.47;5458414;32;34748;-86
2023/07/30 06:24:55;;;;;;;;;;;;;;;26.67;47.29;99945.13;5473106;32;36214;-85
2023/07/30 06:27:58;;;;;;;;;;;;;;;27.11;46.32;99950.84;5454876;32;35139;-86
2023/07/30 06:31:03;;;;;;;;;;;;;;;26.43;48.19;99946.88;5447067;32;35621;-85
2023/07/30 06:34:06;;;;;;;;;;;;;;;26.12;48.56;99945.91;5441575;32;34235;-86
2023/07/30 06:37:08;;;;;;;;;;;;;;;26.60;47.88;99941.44;5447024;32;34687;-87
2023/07/30 06:40:10;;;;;;;;;;;;;;;27.16;46.79;99947.59;5443691;32;34322;-86
2023/07/30 06:43:12;;;;;;;;;;;;;;;27.77;44.99;99948.56;5469725;32;35341;-86
2023/07/30 06:46:14;;;;;;;;;;;;;;;26.65;47.07;99939.06;5459433;32;34507;-88
2023/07/30 06:49:16;;;;;;;;;;;;;;;27.58;45.20;99941.78;5465796;32;34348;-86
2023/07/30 06:52:18;;;;;;;;;;;;;;;27.71;44.66;99943.91;5446370;32;34724;-86
2023/07/30 06:55:20;;;;;;;;;;;;;;;28.30;43.18;99935.91;5444600;32;35043;-87
2023/07/30 06:58:22;;;;;;;;;;;;;;;28.25;43.51;99938.31;5447647;32;35229;-87
2023/07/30 07:01:24;;;;;;;;;;;;;;;29.24;41.25;99933.41;5434889;32;34769;-86
2023/07/30 07:04:26;;;;;;;;;;;;;;;27.61;44.02;99941.41;5454632;32;34862;-86
2023/07/30 07:07:28;;;;;;;;;;;;;;;28.18;42.62;99934.69;5442949;32;36438;-87
2023/07/30 07:10:30;;;;;;;;;;;;;;;28.64;41.72;99931.81;5443470;32;35584;-86
2023/07/30 07:13:35;;;;;;;;;;;;;;;27.53;43.80;99944.16;5447967;32;35233;-87
2023/07/30 07:16:37;;;;;;;;;;;;;;;27.44;43.78;99953.34;5443039;32;35190;-86
2023/07/30 07:19:39;;;;;;;;;;;;;;;28.18;42.04;99954.41;5460466;32;36684;-86
2023/07/30 07:22:41;;;;;;;;;;;;;;;28.48;41.68;99968.00;5443600;32;34924;-87
2023/07/30 07:25:43;;;;;;;;;;;;;;;27.86;42.87;99979.88;5446892;32;35579;-87
2023/07/30 07:28:46;;;;;;;;;;;;;;;27.83;43.12;99982.12;5442397;32;34981;-87
2023/07/30 07:31:48;;;;;;;;;;;;;;;27.26;45.40;99986.00;5443401;32;35087;-86
2023/07/30 07:34:50;;;;;;;;;;;;;;;27.62;46.08;99988.13;5446318;32;34851;-89
2023/07/30 07:37:52;;;;;;;;;;;;;;;26.67;49.32;100007.13;5427852;32;34658;-86
2023/07/30 07:40:54;;;;;;;;;;;;;;;26.74;50.54;100008.12;5434452;32;34993;-86
2023/07/30 07:43:56;;;;;;;;;;;;;;;26.57;51.93;100012.69;5443650;32;35047;-86
2023/07/30 07:46:58;;;;;;;;;;;;;;;25.57;55.63;100011.19;5449556;32;34885;-86
2023/07/30 07:50:00;;;;;;;;;;;;;;;26.00;54.96;100014.59;5430698;32;35299;-86
2023/07/30 07:53:02;;;;;;;;;;;;;;;25.19;57.82;100015.28;5443727;32;34388;-85
2023/07/30 07:56:04;;;;;;;;;;;;;;;25.52;56.95;100010.81;5432883;32;34531;-86
2023/07/30 07:59:06;;;;;;;;;;;;;;;25.24;58.39;100016.44;5429662;32;34358;-86
2023/07/30 08:02:08;;;;;;;;;;;;;;;24.96;60.55;100023.87;5446843;32;34777;-86
2023/07/30 08:05:10;;;;;;;;;;;;;;;24.81;61.92;100029.03;5429193;32;35008;-86
2023/07/30 08:08:12;;;;;;;;;;;;;;;25.21;59.55;100032.09;5455708;32;34369;-86
2023/07/30 08:11:14;;;;;;;;;;;;;;;25.55;59.48;100040.91;5443492;32;35391;-86
2023/07/30 08:14:16;;;;;;;;;;;;;;;24.50;60.98;100046.66;5439429;32;35190;-86
2023/07/30 08:17:21;;;;;;;;;;;;;;;24.08;62.89;100058.03;5441008;32;35729;-85
2023/07/30 08:20:23;;;;;;;;;;;;;;;24.61;58.56;100046.38;5444383;32;34928;-86
2023/07/30 08:23:28;;;;;;;;;;;;;;;25.27;57.06;100050.25;5449989;32;37032;-87
2023/07/30 08:26:31;;;;;;;;;;;;;;;24.72;57.73;100050.63;5445225;32;35562;-86
2023/07/30 08:29:34;;;;;;;;;;;;;;;24.78;58.87;100055.38;5447328;32;35405;-87
2023/07/30 08:32:41;;;;;;;;;;;;;;;24.87;58.82;100054.44;5445097;32;34266;-85
2023/07/30 08:35:43;;;;;;;;;;;;;;;25.02;59.68;100060.87;5441383;32;36129;-86
2023/07/30 08:38:45;;;;;;;;;;;;;;;24.02;64.56;100069.38;5446199;32;34954;-85
2023/07/30 08:41:47;;;;;;;;;;;;;;;24.01;60.65;100070.38;5443532;32;34226;-85
2023/07/30 08:44:49;;;;;;;;;;;;;;;23.48;62.53;100072.00;5450015;32;35757;-87
2023/07/30 08:47:51;;;;;;;;;;;;;;;23.41;63.10;100073.59;5442964;32;36042;-86
2023/07/30 08:50:56;;;;;;;;;;;;;;;23.46;63.97;100074.00;5457830;32;34341;-87
2023/07/30 08:53:58;;;;;;;;;;;;;;;23.80;64.19;100070.69;5459669;32;35712;-86
2023/07/30 08:57:01;;;;;;;;;;;;;;;24.65;61.18;100065.72;5454781;32;35047;-85
2023/07/30 09:00:08;;;;;;;;;;;;;;;23.75;62.48;100068.47;5441368;32;34329;-86
2023/07/30 09:03:10;;;;;;;;;;;;;;;24.18;62.13;100066.84;5455234;32;34792;-87
2023/07/30 09:06:12;;;;;;;;;;;;;;;24.26;60.66;100064.22;5460165;32;35988;-87
2023/07/30 09:09:14;;;;;;;;;;;;;;;24.22;60.17;100048.59;5441860;32;34663;-87
2023/07/30 09:12:16;;;;;;;;;;;;;;;24.22;60.88;100060.19;5444163;32;34119;-88
2023/07/30 09:15:18;;;;;;;;;;;;;;;23.88;64.05;100069.91;5447599;32;35354;-86
2023/07/30 09:18:20;;;;;;;;;;;;;;;23.87;64.07;100069.09;5443811;32;35379;-86
2023/07/30 09:21:32;;;;;;;;;;;;;;;23.85;63.96;100064.88;5461616;32;35410;-85
2023/07/30 09:24:34;;;;;;;;;;;;;;;23.91;65.70;100056.22;5455562;32;34845;-86
2023/07/30 09:27:36;;;;;;;;;;;;;;;23.80;64.79;100059.12;5446324;32;34807;-86
2023/07/30 09:30:38;;;;;;;;;;;;;;;23.96;65.75;100051.25;5444991;32;34150;-86
2023/07/30 09:33:40;;;;;;;;;;;;;;;23.93;65.55;100063.09;5440648;32;36082;-86
2023/07/30 09:36:43;;;;;;;;;;;;;;;24.25;65.04;100059.00;5458718;32;34030;-86
2023/07/30 09:39:47;;;;;;;;;;;;;;;24.67;62.79;100055.66;5454902;32;34336;-86
2023/07/30 09:42:49;;;;;;;;;;;;;;;24.38;64.58;100055.97;5459786;32;34951;-85
2023/07/30 09:45:53;;;;;;;;;;;;;;;23.98;65.50;100068.03;5443652;32;34759;-86
2023/07/30 09:48:55;;;;;;;;;;;;;;;23.96;65.35;100059.28;5434482;32;35013;-85
2023/07/30 09:51:57;;;;;;;;;;;;;;;24.45;64.41;100059.69;5450177;32;34664;-85
2023/07/30 09:54:59;;;;;;;;;;;;;;;24.90;62.33;100050.56;5457406;32;34709;-86
2023/07/30 09:58:01;;;;;;;;;;;;;;;24.31;66.84;100053.84;5455653;32;35165;-86
2023/07/30 10:01:04;;;;;;;;;;;;;;;25.39;62.54;100039.03;5444796;32;35092;-86
2023/07/30 10:04:09;;;;;;;;;;;;;;;24.79;64.96;100046.31;5449880;32;35075;-86
2023/07/30 10:07:13;;;;;;;;;;;;;;;24.81;65.53;100053.22;5442228;32;34541;-86
2023/07/30 10:10:15;;;;;;;;;;;;;;;24.22;65.04;100060.19;5444551;32;34869;-86
2023/07/30 10:13:17;;;;;;;;;;;;;;;23.94;66.18;100056.72;5445277;32;35421;-86
2023/07/30 10:16:24;;;;;;;;;;;;;;;24.38;65.95;100055.97;5456798;32;34927;-87
2023/07/30 10:19:27;;;;;;;;;;;;;;;24.15;69.27;100059.12;5459291;32;34935;-86
2023/07/30 10:22:31;;;;;;;;;;;;;;;24.85;64.25;100045.66;5455000;32;35319;-86
2023/07/30 10:25:46;;;;;;;;;;;;;;;25.24;63.27;100054.09;5459019;32;34403;-87
2023/07/30 10:28:48;;;;;;;;;;;;;;;24.50;67.50;100058.22;5444817;32;35775;-86
2023/07/30 10:31:57;;;;;;;;;;;;;;;24.79;64.58;100051.69;5455520;32;34832;-86
2023/07/30 10:34:59;;;;;;;;;;;;;;;24.94;64.88;100047.41;5433607;32;35781;-87
2023/07/30 10:38:12;;;;;;;;;;;;;;;24.70;68.50;100049.97;5441134;32;34949;-87
2023/07/30 10:41:16;;;;;;;;;;;;;;;24.67;66.98;100050.28;5448479;32;34990;-87
2023/07/30 10:44:19;;;;;;;;;;;;;;;24.75;64.34;100048.47;5456905;32;34829;-86
2023/07/30 10:47:21;;;;;;;;;;;;;;;25.29;63.88;100049.09;5454224;32;34999;-87
2023/07/30 10:50:38;;;;;;;;;;;;;;;25.22;61.04;100036.47;5457563;32;34741;-86
2023/07/30 10:53:43;;;;;;;;;;;;;;;24.70;64.00;100048.09;5455674;32;34846;-85
2023/07/30 10:56:45;;;;;;;;;;;;;;;24.45;64.51;100041.72;5419807;32;851658;-86
2023/07/30 10:59:47;;;;;;;;;;;;;;;24.45;66.09;100027.47;5441724;32;34987;-85
2023/07/30 11:02:53;;;;;;;;;;;;;;;24.66;66.85;100040.50;5446054;32;37185;-87
2023/07/30 11:05:55;;;;;;;;;;;;;;;24.21;67.14;100041.50;5444888;32;35231;-87
2023/07/30 11:08:57;;;;;;;;;;;;;;;24.24;63.58;100035.84;5441896;32;35357;-86
2023/07/30 11:12:00;;;;;;;;;;;;;;;24.82;63.34;100028.03;5448331;32;34520;-87
2023/07/30 11:15:05;;;;;;;;;;;;;;;24.98;64.19;100029.09;5461502;32;37378;-87
2023/07/30 11:18:07;;;;;;;;;;;;;;;24.70;65.44;100026.63;5458147;32;36339;-86
2023/07/30 11:21:10;;;;;;;;;;;;;;;25.47;61.19;100032.00;5452478;32;34058;-86
2023/07/30 11:24:12;;;;;;;;;;;;;;;24.79;64.68;100028.31;5445651;32;35235;-85
2023/07/30 11:27:14;;;;;;;;;;;;;;;24.90;65.24;100024.53;5440617;32;34553;-85
2023/07/30 11:30:16;;;;;;;;;;;;;;;25.39;62.04;100022.91;5441360;32;36176;-85
2023/07/30 11:33:18;;;;;;;;;;;;;;;26.58;58.66;100029.72;5444335;32;34626;-85
2023/07/30 11:36:22;;;;;;;;;;;;;;;25.85;60.54;100034.09;5438155;32;35244;-86
2023/07/30 11:39:24;;;;;;;;;;;;;;;24.65;66.21;100033.47;5458760;32;35404;-86
2023/07/30 11:42:29;;;;;;;;;;;;;;;25.79;63.33;100048.22;5454159;32;34230;-85
2023/07/30 11:45:31;;;;;;;;;;;;;;;26.12;61.35;100040.19;5444594;32;37025;-85
2023/07/30 11:48:34;;;;;;;;;;;;;;;25.01;62.95;100034.16;5455589;32;35427;-85
2023/07/30 11:51:36;;;;;;;;;;;;;;;24.93;63.52;100026.06;5455033;32;35368;-85
2023/07/30 11:54:39;;;;;;;;;;;;;;;23.86;66.91;100032.50;5458438;32;35425;-86
2023/07/30 11:57:41;;;;;;;;;;;;;;;24.48;64.12;100033.37;5454323;32;34801;-87
2023/07/30 12:00:43;;;;;;;;;;;;;;;24.41;63.95;100037.69;5457480;32;34135;-85
2023/07/30 12:03:45;;;;;;;;;;;;;;;24.67;61.98;100026.09;5442940;32;35353;-86
2023/07/30 12:06:47;;;;;;;;;;;;;;;24.61;62.45;100024.91;5447007;32;34216;-86
2023/07/30 12:09:49;;;;;;;;;;;;;;;24.58;62.43;100028.72;5446912;32;35246;-86
2023/07/30 12:12:52;;;;;;;;;;;;;;;24.55;62.74;100036.28;5442988;32;34517;-84
2023/07/30 12:15:55;;;;;;;;;;;;;;;24.85;62.58;100029.53;5449069;32;34432;-85
2023/07/30 12:18:57;;;;;;;;;;;;;;;25.16;61.92;100034.41;5443059;32;34843;-85
2023/07/30 12:21:59;;;;;;;;;;;;;;;23.91;65.68;100030.22;5448891;32;35367;-86
2023/07/30 12:25:04;;;;;;;;;;;;;;;23.98;66.04;100028.59;5446474;32;34709;-85
2023/07/30 12:28:06;;;;;;;;;;;;;;;25.06;61.55;100010.37;5457160;32;35573;-85
2023/07/30 12:31:08;;;;;;;;;;;;;;;24.61;64.62;100027.59;5445896;32;34972;-85
2023/07/30 12:34:10;;;;;;;;;;;;;;;24.38;64.87;100037.16;5439057;32;34540;-86
2023/07/30 12:37:13;;;;;;;;;;;;;;;25.08;62.74;100030.69;5445680;32;35024;-85
2023/07/30 12:40:15;;;;;;;;;;;;;;;25.24;62.78;100027.22;5456426;32;35237;-85
2023/07/30 12:43:19;;;;;;;;;;;;;;;25.37;61.08;100019.53;5459176;32;34704;-86
2023/07/30 12:46:21;;;;;;;;;;;;;;;24.64;65.51;100010.28;5447206;32;35617;-86
2023/07/30 12:49:23;;;;;;;;;;;;;;;24.54;68.15;100000.50;5441127;32;34997;-86
2023/07/30 12:52:25;;;;;;;;;;;;;;;25.12;63.48;100001.66;5449672;32;35233;-85
2023/07/30 12:55:27;;;;;;;;;;;;;;;24.83;64.70;99992.06;5454647;32;35363;-86
2023/07/30 12:58:29;;;;;;;;;;;;;;;25.76;60.67;99992.06;5459253;32;34430;-86
2023/07/30 13:01:31;;;;;;;;;;;;;;;25.52;60.56;99987.44;5443894;32;34271;-87
2023/07/30 13:04:33;;;;;;;;;;;;;;;25.24;60.97;99981.50;5449322;32;35453;-86
2023/07/30 13:07:35;;;;;;;;;;;;;;;25.47;60.82;99980.88;5456365;32;34834;-86
2023/07/30 13:10:37;;;;;;;;;;;;;;;25.02;61.83;99972.16;5455327;32;35506;-87
2023/07/30 13:13:39;;;;;;;;;;;;;;;24.39;65.28;99974.38;5444473;32;34740;-86
2023/07/30 13:16:41;;;;;;;;;;;;;;;25.12;61.95;99972.06;5443610;32;36454;-86
2023/07/30 13:19:43;;;;;;;;;;;;;;;24.25;64.13;99963.19;5447253;32;34911;-86
2023/07/30 13:22:45;;;;;;;;;;;;;;;24.37;66.05;99954.91;5444922;32;34450;-86
2023/07/30 13:25:47;;;;;;;;;;;;;;;24.01;65.86;99960.31;5450514;32;34724;-86
2023/07/30 13:28:49;;;;;;;;;;;;;;;24.52;65.62;99958.66;5455982;32;35157;-86
2023/07/30 13:31:51;;;;;;;;;;;;;;;24.38;65.32;99940.47;5443968;32;35931;-86
2023/07/30 13:34:53;;;;;;;;;;;;;;;23.92;66.20;99937.12;5457653;32;35705;-86
2023/07/30 13:37:55;;;;;;;;;;;;;;;24.18;66.32;99935.28;5454631;32;34795;-87
2023/07/30 13:40:57;;;;;;;;;;;;;;;25.11;64.25;99933.56;5453507;32;37853;-87
2023/07/30 13:43:59;;;;;;;;;;;;;;;25.38;61.98;99934.31;5444945;32;37530;-87
2023/07/30 13:47:01;;;;;;;;;;;;;;;25.27;61.68;99929.25;5447430;32;35160;-85
2023/07/30 13:50:04;;;;;;;;;;;;;;;24.35;64.93;99930.91;5452100;32;36668;-85
2023/07/30 13:53:06;;;;;;;;;;;;;;;24.98;62.93;99918.88;5444236;32;36992;-85
2023/07/30 13:56:08;;;;;;;;;;;;;;;25.84;60.50;99913.16;5448747;32;34659;-86
2023/07/30 13:59:10;;;;;;;;;;;;;;;26.17;57.72;99908.53;5451190;32;34487;-85
2023/07/30 14:02:12;;;;;;;;;;;;;;;27.17;55.63;99909.66;5460031;32;35257;-87
2023/07/30 14:05:14;;;;;;;;;;;;;;;25.85;57.53;99907.59;5443153;32;36148;-87
2023/07/30 14:08:16;;;;;;;;;;;;;;;24.93;60.36;99905.09;5460666;32;34872;-86
2023/07/30 14:11:18;;;;;;;;;;;;;;;24.72;61.81;99901.00;5447767;32;36157;-88
2023/07/30 14:14:22;;;;;;;;;;;;;;;25.47;58.37;99889.41;5449706;32;34416;-87
2023/07/30 14:17:24;;;;;;;;;;;;;;;25.68;57.46;99884.34;5450328;32;35584;-86
2023/07/30 14:20:26;;;;;;;;;;;;;;;25.71;57.72;99883.19;5462005;32;34881;-88
2023/07/30 14:23:28;;;;;;;;;;;;;;;25.87;56.99;99892.09;5465901;32;35138;-88
2023/07/30 14:26:30;;;;;;;;;;;;;;;26.00;56.63;99885.34;5466054;32;35138;-86
2023/07/30 14:29:32;;;;;;;;;;;;;;;25.91;57.06;99893.44;5481306;32;34673;-87
2023/07/30 14:32:34;;;;;;;;;;;;;;;26.58;55.38;99892.28;5457913;32;36085;-87
2023/07/30 14:35:38;;;;;;;;;;;;;;;26.35;55.68;99890.31;5447446;32;34308;-87
2023/07/30 14:38:40;;;;;;;;;;;;;;;26.88;54.33;99887.91;5453887;32;34436;-87
2023/07/30 14:41:42;;;;;;;;;;;;;;;26.75;53.87;99880.41;5460108;32;34523;-87
2023/07/30 14:44:45;;;;;;;;;;;;;;;26.63;54.49;99882.66;5458208;32;35148;-87
2023/07/30 14:47:46;;;;;;;;;;;;;;;26.41;54.92;99884.25;5448980;32;35664;-88
2023/07/30 14:50:51;;;;;;;;;;;;;;;27.31;51.66;99878.41;5459840;32;34975;-86
2023/07/30 14:53:53;;;;;;;;;;;;;;;26.09;54.87;99863.63;5437908;32;34903;-86
2023/07/30 14:56:56;;;;;;;;;;;;;;;26.70;53.49;99882.78;5442757;32;34423;-87
2023/07/30 14:59:59;;;;;;;;;;;;;;;26.40;53.73;99882.56;5461232;32;34323;-86
2023/07/30 15:03:01;;;;;;;;;;;;;;;26.70;51.80;99861.22;5447862;32;34215;-87
2023/07/30 15:06:03;;;;;;;;;;;;;;;26.58;51.47;99865.31;5451967;32;34727;-86
2023/07/30 15:09:05;;;;;;;;;;;;;;;26.74;50.12;99862.56;5459936;32;35471;-87
2023/07/30 15:12:09;;;;;;;;;;;;;;;26.61;50.40;99862.28;5453728;32;34725;-87
2023/07/30 15:15:11;;;;;;;;;;;;;;;26.55;50.90;99860.28;5450663;32;34851;-88
2023/07/30 15:18:13;;;;;;;;;;;;;;;26.44;51.96;99853.44;5450313;32;34351;-87
2023/07/30 15:21:15;;;;;;;;;;;;;;;26.77;50.68;99837.09;5458169;32;34583;-88
2023/07/30 15:24:17;;;;;;;;;;;;;;;26.78;50.78;99834.22;5438231;32;34626;-87
2023/07/30 15:27:19;;;;;;;;;;;;;;;27.48;49.58;99833.22;5449613;32;34857;-87
2023/07/30 15:30:21;;;;;;;;;;;;;;;27.76;48.84;99825.41;5457785;32;33888;-86
2023/07/30 15:33:24;;;;;;;;;;;;;;;27.78;48.52;99818.78;5443409;32;34844;-87
2023/07/30 15:36:26;;;;;;;;;;;;;;;26.94;49.89;99822.50;5447191;32;34842;-89
2023/07/30 15:39:28;;;;;;;;;;;;;;;26.59;51.27;99826.56;5447135;32;34456;-86
2023/07/30 15:42:30;;;;;;;;;;;;;;;27.09;49.87;99814.50;5448823;32;34633;-86
2023/07/30 15:45:32;;;;;;;;;;;;;;;26.81;51.17;99824.94;5446413;32;36568;-88